French Gulch, CA (96033)

11:32 PM PDT on October 24, 2014 (GMT -0700)
RAWS WHISKEYTOWN HQ#2 CA US | Change Station
CLOSE
Current Station
Personal Weather Station
Location: Shasta, CA
Elevation: 1359 ft
Nearby Weather Stations

Elev 1359 ft 40.61 °N, 122.53 °W | Updated 32 minutes ago

Partly Cloudy
Partly Cloudy
61 °F
Feels Like 61 °F
N
3
Wind Variable Wind from SE
Gusts 8.0 mph

Today
High -- | Low -- °F
--% Chance of Precip.
Yesterday
High -- | Low -- °F
Precip. -- in
7:31 AM 6:16 PM
New Moon, 2% visible
Pressure 29.82 in
Visibility 10.0 miles
Clouds Clear
Dew Point 50 °F
Humidity 68%
Rainfall 0.12 in
Snow Depth Not available.
UV 0 out of 12
Pollen 1.30 out of 12
Air Quality Not available.
Flu Activity Sporadic
METAR KO54 250615Z AUTO 04007KT 10SM CLR 13/09 A2982 RMK AO1

More Conditions Fewer Conditions

Pressure 29.82 in
Visibility 10.0 miles
Clouds Clear
Dew Point 50 °F
Humidity 68%
Rainfall 0.12 in
Snow Depth Not available.
UV 0 out of 12
Pollen 1.30 out of 12
Air Quality Not available.
Flu Activity Sporadic
METAR KO54 250615Z AUTO 04007KT 10SM CLR 13/09 A2982 RMK AO1

More Conditions Fewer Conditions

10-Day Weather Forecast

Almanac

Astronomy

Oct. 24, 2014 Rise Set
Actual Time 7:31 AM PDT 6:16 PM PDT
Civil Twilight 7:03 AM PDT 6:44 PM PDT
Nautical Twilight 6:31 AM PDT 7:16 PM PDT
Astronomical Twilight 5:59 AM PDT 7:48 PM PDT
Moon 8:16 AM PDT (10/24) 7:00 PM PDT (10/24)
Length of Visible Light 11h 41m
Length of Day
10h 45m
Tomorrow will be 2m 30s shorter.
New Moon, 2% of the Moon is Illuminated
Oct 25
New Moon
Oct 30
First Quarter
Nov 6
Full
Nov 14
Last Quarter
Nov 22
New

Community

WunderPhotos

Upload Photos

1,764,785 photos uploaded!

Nearby

Snow Depth

Station Depth Elevation
Adin Mountain 0 in 6200 ft
Crowder Flat 0 in 5100 ft
Independence Lake 0 in 8450 ft
Squaw Valley 0 in 8200 ft
Tahoe City Cross 0 in 6750 ft

Earthquake Activity

City Distance Mag. Time & Date
No recent earthquake activity has been reported nearby.
Minimum magnitude displayed is 2.5.

Coastal Water Temperatures

Place Temperature
No Stations Reporting

Nearby Weather Stations